Time;durP1;ratioP1;P1;durP2;ratioP2;P2;SDS_P1;SDS_P2;PMS_P1;PMS_P2;Temp;Humidity;BMP_temperature;BMP_pressure;BME280_temperature;BME280_humidity;BME280_pressure;Samples;Min_cycle;Max_cycle;Signal;HPM_P1;HPM_P2
2022/12/28 00:01:18;;;;;;;41.33;17.60;;;;;;;1.80;72.19;99973.41;5141686;28;20058;-73
2022/12/28 00:04:09;;;;;;;37.53;16.53;;;;;;;1.74;72.27;99968.44;5139879;28;20051;-73
2022/12/28 00:06:59;;;;;;;35.40;16.92;;;;;;;1.82;71.89;99957.63;5141825;28;20505;-73
2022/12/28 00:09:49;;;;;;;31.75;15.63;;;;;;;1.70;72.10;99956.41;5135932;28;20095;-73
2022/12/28 00:12:40;;;;;;;30.50;15.15;;;;;;;1.64;71.61;99954.03;5133055;28;20066;-73
2022/12/28 00:15:30;;;;;;;38.03;15.95;;;;;;;1.64;71.96;99943.59;5137890;28;20062;-73
2022/12/28 00:18:20;;;;;;;37.72;15.43;;;;;;;1.54;71.38;99926.59;5138996;28;20098;-73
2022/12/28 00:21:10;;;;;;;30.83;13.88;;;;;;;1.62;72.15;99943.66;5125694;28;20058;-73
2022/12/28 00:24:01;;;;;;;34.65;14.60;;;;;;;1.73;71.42;99937.13;5133308;28;20046;-74
2022/12/28 00:26:51;;;;;;;32.17;15.02;;;;;;;1.78;72.10;99936.00;5141478;28;20058;-74
2022/12/28 00:29:42;;;;;;;27.65;13.75;;;;;;;1.65;71.61;99917.38;5142207;28;20273;-74
2022/12/28 00:32:32;;;;;;;27.55;13.07;;;;;;;1.70;71.10;99921.56;5140108;28;20062;-74
2022/12/28 00:35:22;;;;;;;33.22;14.95;;;;;;;1.73;71.09;99937.13;5143754;28;20065;-74
2022/12/28 00:38:12;;;;;;;32.72;15.23;;;;;;;1.62;71.40;99917.53;5144034;28;20094;-74
2022/12/28 00:41:04;;;;;;;35.95;16.35;;;;;;;1.81;71.54;99929.78;5142512;28;20736;-75
2022/12/28 00:43:55;;;;;;;34.78;16.85;;;;;;;1.76;71.36;99914.31;5140780;28;20056;-74
2022/12/28 00:46:47;;;;;;;36.70;15.25;;;;;;;1.82;71.46;99902.72;5143467;28;20094;-74
2022/12/28 00:49:38;;;;;;;33.92;16.23;;;;;;;1.86;71.58;99925.22;5143746;28;20105;-74
2022/12/28 00:52:28;;;;;;;36.40;16.98;;;;;;;1.78;71.04;99909.84;5140939;28;20053;-74
2022/12/28 00:55:18;;;;;;;35.70;16.83;;;;;;;1.33;70.83;99835.13;5141826;28;20093;-74
2022/12/28 00:58:08;;;;;;;31.67;15.98;;;;;;;1.84;71.00;99901.75;5136974;28;20050;-74
2022/12/28 01:00:58;;;;;;;33.00;15.60;;;;;;;1.75;70.32;99909.97;5140424;28;20057;-74
2022/12/28 01:03:49;;;;;;;42.05;18.77;;;;;;;1.58;71.53;99904.63;5143619;28;20058;-74
2022/12/28 01:06:40;;;;;;;46.92;19.70;;;;;;;1.60;71.64;99898.44;5141732;28;20215;-74
2022/12/28 01:09:30;;;;;;;39.75;17.92;;;;;;;1.64;72.11;99859.94;5142228;28;20528;-74
2022/12/28 01:12:20;;;;;;;45.55;17.25;;;;;;;1.81;71.74;99873.13;5139703;28;20410;-74
2022/12/28 01:15:12;;;;;;;42.33;18.50;;;;;;;1.76;71.58;99882.09;5138648;28;20130;-73
2022/12/28 01:18:03;;;;;;;39.92;17.95;;;;;;;1.68;72.05;99876.34;5141404;28;20160;-74
2022/12/28 01:20:53;;;;;;;38.17;17.50;;;;;;;1.74;72.28;99873.47;5143084;28;20066;-74
2022/12/28 01:23:45;;;;;;;34.60;16.88;;;;;;;1.64;71.66;99857.31;5143415;28;20054;-74
2022/12/28 01:26:35;;;;;;;40.42;17.17;;;;;;;1.80;72.03;99879.28;5136683;28;20058;-74
2022/12/28 01:29:26;;;;;;;36.92;16.73;;;;;;;1.74;71.94;99870.84;5139889;28;20113;-74
2022/12/28 01:32:17;;;;;;;38.45;16.17;;;;;;;1.73;72.83;99864.78;5142312;28;20066;-73
2022/12/28 01:35:07;;;;;;;35.55;15.90;;;;;;;1.90;71.60;99868.41;5140750;28;20098;-73
2022/12/28 01:37:58;;;;;;;38.00;16.33;;;;;;;1.89;71.51;99862.34;5142793;28;20771;-74
2022/12/28 01:40:47;;;;;;;34.45;15.25;;;;;;;1.97;72.03;99852.38;5142352;28;20069;-74
2022/12/28 01:43:42;;;;;;;30.88;15.18;;;;;;;1.92;71.98;99843.03;5140135;28;20057;-74
2022/12/28 01:46:51;;;;;;;34.10;15.50;;;;;;;1.87;72.04;99832.78;5138242;28;20193;-74
2022/12/28 01:49:40;;;;;;;28.83;12.65;;;;;;;1.97;72.43;99838.44;5141739;28;20073;-74
2022/12/28 01:52:54;;;;;;;25.63;13.52;;;;;;;2.10;72.51;99834.34;5142121;28;20073;-74
2022/12/28 01:55:46;;;;;;;29.70;14.13;;;;;;;2.16;72.72;99821.00;5141763;28;20050;-74
2022/12/28 01:58:38;;;;;;;31.00;14.15;;;;;;;2.35;71.74;99832.31;5142196;28;20062;-73
2022/12/28 02:01:30;;;;;;;30.35;14.65;;;;;;;2.26;71.22;99822.28;5141344;28;20117;-74
2022/12/28 02:04:20;;;;;;;33.08;15.85;;;;;;;1.99;73.66;99802.63;5142903;28;20058;-74
2022/12/28 02:07:15;;;;;;;30.52;14.45;;;;;;;2.11;73.58;99807.28;5139999;28;20109;-74
2022/12/28 02:10:07;;;;;;;26.73;11.63;;;;;;;2.44;73.29;99790.91;5137697;28;20061;-74
2022/12/28 02:13:20;;;;;;;14.70;6.65;;;;;;;2.95;74.34;99810.28;5141236;28;20091;-74
2022/12/28 02:16:11;;;;;;;16.73;7.50;;;;;;;3.34;73.37;99793.44;5140431;28;20058;-74
2022/12/28 02:19:06;;;;;;;18.02;7.32;;;;;;;3.66;72.44;99797.03;5139451;28;20085;-74
2022/12/28 02:22:40;;;;;;;15.18;7.47;;;;;;;3.98;71.84;99780.44;5141558;28;20521;-74
2022/12/28 02:26:07;;;;;;;17.10;8.00;;;;;;;4.36;69.95;99790.59;5133506;28;20050;-74
2022/12/28 02:29:10;;;;;;;15.25;7.70;;;;;;;3.93;71.16;99761.47;5139264;28;20049;-74
2022/12/28 02:32:34;;;;;;;16.63;7.50;;;;;;;4.39;70.83;99773.84;5141195;28;20430;-74
2022/12/28 02:35:49;;;;;;;12.15;6.47;;;;;;;4.53;69.27;99771.28;5151200;28;20042;-74
2022/12/28 02:38:47;;;;;;;17.83;8.75;;;;;;;4.47;68.52;99756.72;5150940;28;20648;-74
2022/12/28 02:41:40;;;;;;;18.17;9.35;;;;;;;4.29;68.70;99743.78;5140508;28;20065;-74
2022/12/28 02:51:07;;;;;;;12.25;5.22;;;;;;;4.45;70.43;99734.13;5141633;28;20042;-74
2022/12/28 02:58:13;;;;;;;10.43;4.93;;;;;;;4.56;69.25;99731.72;5138092;28;20137;-74
2022/12/28 03:01:25;;;;;;;9.35;4.60;;;;;;;4.91;68.45;99716.53;5164414;28;20114;-74
2022/12/28 03:04:48;;;;;;;14.20;5.00;;;;;;;5.06;67.71;99704.25;5141695;28;20049;-74
2022/12/28 03:11:21;;;;;;;18.08;7.97;;;;;;;4.75;67.10;99712.28;5134571;28;20049;-74
2022/12/28 03:14:20;;;;;;;16.55;7.93;;;;;;;4.43;67.76;99713.19;5139783;28;20043;-74
2022/12/28 03:33:28;;;;;;;18.60;8.52;;;;;;;3.69;69.47;99715.56;5134522;28;20050;-74
2022/12/28 03:36:35;;;;;;;17.77;9.80;;;;;;;3.78;70.28;99709.00;5139263;28;20138;-74
2022/12/28 03:39:48;;;;;;;18.92;8.38;;;;;;;3.75;70.04;99705.59;5135952;28;20079;-73
2022/12/28 03:45:59;;;;;;;16.35;8.32;;;;;;;3.99;69.40;99686.81;5146417;28;20555;-73
2022/12/28 03:48:52;;;;;;;18.90;9.30;;;;;;;3.84;69.85;99683.28;5152484;28;20093;-74
2022/12/28 03:51:45;;;;;;;16.50;8.38;;;;;;;3.84;70.08;99680.66;5139902;28;20082;-74
2022/12/28 03:54:39;;;;;;;21.02;9.25;;;;;;;3.98;69.51;99672.00;5158688;28;20077;-74
2022/12/28 03:57:30;;;;;;;18.95;8.70;;;;;;;4.03;69.53;99674.38;5139089;28;20102;-74
2022/12/28 04:00:21;;;;;;;14.00;8.18;;;;;;;3.99;69.62;99663.19;5142740;28;20189;-74
2022/12/28 04:03:13;;;;;;;16.65;8.40;;;;;;;3.85;69.87;99640.38;5143707;28;20077;-74
2022/12/28 04:06:05;;;;;;;14.60;8.00;;;;;;;4.01;69.70;99656.09;5143655;28;20121;-74
2022/12/28 04:08:55;;;;;;;17.77;7.70;;;;;;;4.04;69.83;99650.69;5147587;28;20116;-73
2022/12/28 04:11:48;;;;;;;11.43;5.55;;;;;;;4.12;69.68;99624.84;5143300;28;20137;-73
2022/12/28 04:14:46;;;;;;;11.25;5.18;;;;;;;4.31;69.86;99648.25;5142412;28;20128;-73
2022/12/28 04:17:36;;;;;;;4.32;2.92;;;;;;;4.58;70.42;99655.47;5142156;28;20050;-73
2022/12/28 04:20:26;;;;;;;4.93;2.35;;;;;;;4.65;70.33;99643.66;5141642;28;20640;-74
2022/12/28 04:23:17;;;;;;;6.75;2.28;;;;;;;4.83;69.70;99655.69;5144976;28;20417;-74
2022/12/28 04:26:11;;;;;;;7.90;2.13;;;;;;;4.88;69.89;99643.13;5141388;28;20062;-74
2022/12/28 04:29:04;;;;;;;3.85;1.95;;;;;;;5.04;69.01;99621.22;5141934;28;20453;-74
2022/12/28 04:31:54;;;;;;;7.72;2.00;;;;;;;5.21;69.25;99622.78;5143546;28;20053;-73
2022/12/28 04:34:45;;;;;;;6.18;2.22;;;;;;;5.24;68.03;99612.09;5142498;28;20042;-73
2022/12/28 04:37:39;;;;;;;7.35;2.33;;;;;;;5.26;68.79;99623.34;5142344;28;20085;-73
2022/12/28 04:40:29;;;;;;;8.40;2.47;;;;;;;5.32;68.42;99618.56;5143696;28;20138;-73
2022/12/28 04:43:20;;;;;;;7.07;3.83;;;;;;;5.19;68.70;99615.81;5142593;28;20055;-73
2022/12/28 04:46:15;;;;;;;12.10;7.15;;;;;;;4.89;68.70;99613.28;5139167;28;20132;-73
2022/12/28 04:49:05;;;;;;;13.98;7.28;;;;;;;4.68;69.96;99625.94;5142878;28;20057;-73
2022/12/28 04:51:55;;;;;;;14.38;8.05;;;;;;;4.74;69.05;99631.78;5141328;28;20066;-73
2022/12/28 04:54:46;;;;;;;12.55;7.85;;;;;;;4.66;69.70;99626.97;5141275;28;20481;-73
2022/12/28 04:57:36;;;;;;;17.05;8.00;;;;;;;4.59;70.04;99613.34;5140915;28;20051;-73
2022/12/28 05:00:26;;;;;;;15.07;8.32;;;;;;;4.66;69.32;99619.91;5140274;28;20051;-73
2022/12/28 05:03:17;;;;;;;19.75;7.72;;;;;;;4.71;69.33;99619.66;5141839;28;20078;-73
2022/12/28 05:06:11;;;;;;;14.65;7.63;;;;;;;4.69;69.27;99614.50;5142398;28;20065;-73
2022/12/28 05:09:01;;;;;;;11.35;6.90;;;;;;;4.62;69.29;99618.41;5142820;28;20087;-74
2022/12/28 05:11:51;;;;;;;18.15;7.88;;;;;;;4.71;69.43;99614.41;5142071;28;20062;-73
2022/12/28 05:14:43;;;;;;;13.50;6.47;;;;;;;4.75;69.27;99613.28;5139294;28;20113;-73
2022/12/28 05:17:33;;;;;;;16.67;6.55;;;;;;;4.76;69.45;99612.34;5137912;28;20078;-73
2022/12/28 05:20:23;;;;;;;13.35;7.00;;;;;;;4.72;69.78;99611.69;5137427;28;20062;-73
2022/12/28 05:23:13;;;;;;;13.60;7.18;;;;;;;4.75;69.72;99613.28;5138348;28;20066;-73
2022/12/28 05:26:05;;;;;;;14.70;6.60;;;;;;;4.61;69.97;99602.75;5141076;28;20047;-73
2022/12/28 05:28:57;;;;;;;11.52;6.47;;;;;;;4.71;69.52;99620.50;5142091;28;20141;-73
2022/12/28 05:31:47;;;;;;;11.75;6.43;;;;;;;4.71;69.71;99620.50;5143086;28;20074;-73
2022/12/28 05:34:37;;;;;;;9.13;5.78;;;;;;;4.71;69.24;99612.63;5143517;28;20059;-73
2022/12/28 05:37:27;;;;;;;9.50;5.05;;;;;;;4.78;69.99;99614.91;5133701;28;20051;-73
2022/12/28 05:40:17;;;;;;;10.38;5.75;;;;;;;4.79;69.92;99606.06;5142168;28;20051;-73
2022/12/28 05:43:08;;;;;;;9.85;5.43;;;;;;;4.83;69.81;99592.63;5141503;28;20051;-73
2022/12/28 05:46:03;;;;;;;9.57;5.10;;;;;;;4.96;69.49;99608.50;5141884;28;20197;-73
2022/12/28 05:48:54;;;;;;;11.27;5.47;;;;;;;4.94;70.35;99607.78;5141755;28;20046;-73
2022/12/28 05:51:44;;;;;;;10.07;6.07;;;;;;;4.90;69.53;99608.88;5137881;28;20498;-73
2022/12/28 05:54:34;;;;;;;16.30;7.93;;;;;;;4.75;70.41;99600.16;5136437;28;20098;-73
2022/12/28 05:57:24;;;;;;;15.57;7.47;;;;;;;4.79;70.20;99603.44;5140207;28;20550;-73
2022/12/28 06:00:15;;;;;;;17.08;7.20;;;;;;;4.79;70.01;99587.66;5141978;28;20177;-73
2022/12/28 06:03:05;;;;;;;12.48;7.60;;;;;;;4.76;69.62;99575.56;5140698;28;20078;-73
2022/12/28 06:05:55;;;;;;;14.35;6.95;;;;;;;4.84;69.90;99599.59;5142241;28;20043;-73
2022/12/28 06:08:47;;;;;;;11.80;6.35;;;;;;;4.90;69.94;99598.38;5141234;28;20433;-73
2022/12/28 06:11:37;;;;;;;14.32;6.72;;;;;;;4.89;70.06;99597.53;5140366;28;20413;-73
2022/12/28 06:14:28;;;;;;;7.93;4.32;;;;;;;4.91;70.49;99572.00;5141240;28;20066;-73
2022/12/28 06:17:18;;;;;;;9.50;4.38;;;;;;;5.17;69.88;99588.81;5141182;28;20685;-73
2022/12/28 06:20:09;;;;;;;4.20;2.40;;;;;;;5.24;69.32;99580.53;5141848;28;20141;-73
2022/12/28 06:22:59;;;;;;;6.53;1.58;;;;;;;5.45;68.74;99573.94;5137762;28;20051;-73
2022/12/28 06:25:49;;;;;;;1.50;0.98;;;;;;;5.59;68.90;99573.03;5137161;28;20544;-73
2022/12/28 06:28:41;;;;;;;1.90;1.27;;;;;;;5.76;68.52;99582.47;5141602;28;20208;-73
2022/12/28 06:31:37;;;;;;;8.98;1.23;;;;;;;6.01;67.29;99563.34;5139279;28;20065;-73
2022/12/28 06:34:27;;;;;;;5.82;1.08;;;;;;;6.32;65.50;99560.38;5138853;28;20047;-73
2022/12/28 06:37:17;;;;;;;6.53;1.00;;;;;;;6.56;65.15;99563.13;5137223;28;20082;-73
2022/12/28 06:40:08;;;;;;;3.42;0.80;;;;;;;6.83;63.28;99559.56;5140952;28;20470;-73
2022/12/28 06:42:58;;;;;;;1.92;0.93;;;;;;;6.76;63.35;99527.50;5140815;28;20418;-73
2022/12/28 06:45:55;;;;;;;6.97;1.20;;;;;;;6.73;63.72;99554.06;5140278;28;20125;-73
2022/12/28 06:48:46;;;;;;;3.47;1.00;;;;;;;6.58;64.39;99544.56;5138185;28;20059;-73
2022/12/28 06:51:40;;;;;;;3.92;1.10;;;;;;;6.72;63.47;99551.53;5139231;28;20053;-73
2022/12/28 06:54:30;;;;;;;6.05;0.90;;;;;;;6.69;63.82;99536.78;5169423;28;20489;-73
2022/12/28 06:57:20;;;;;;;4.47;1.10;;;;;;;6.82;63.67;99547.31;5140656;28;20050;-72
2022/12/28 07:00:11;;;;;;;2.13;0.80;;;;;;;6.77;62.84;99537.09;5136637;28;20120;-73
2022/12/28 07:03:01;;;;;;;1.80;0.80;;;;;;;6.76;64.12;99550.38;5139102;28;20081;-73
2022/12/28 07:05:52;;;;;;;2.45;0.75;;;;;;;6.83;63.50;99552.47;5138068;28;20050;-73
2022/12/28 07:08:42;;;;;;;7.85;1.05;;;;;;;6.83;62.92;99547.22;5137203;28;20065;-73
2022/12/28 07:11:33;;;;;;;5.70;1.13;;;;;;;6.77;63.97;99528.34;5137744;28;20420;-73
2022/12/28 07:14:23;;;;;;;1.92;0.98;;;;;;;7.02;62.97;99540.66;5137846;28;20465;-73
2022/12/28 07:17:14;;;;;;;1.40;0.88;;;;;;;6.70;63.98;99538.47;5138313;28;20178;-73
2022/12/28 07:20:04;;;;;;;2.55;0.82;;;;;;;6.80;63.31;99536.03;5140260;28;20117;-73
2022/12/28 07:22:55;;;;;;;3.17;0.90;;;;;;;6.97;62.99;99516.41;5139787;28;20051;-74
2022/12/28 07:25:45;;;;;;;1.52;0.85;;;;;;;6.67;64.51;99532.56;5141792;28;20042;-74
2022/12/28 07:28:37;;;;;;;2.33;0.90;;;;;;;6.84;63.49;99529.59;5125761;28;20054;-73
2022/12/28 07:31:33;;;;;;;6.00;1.20;;;;;;;7.10;62.62;99527.78;5139437;28;20129;-73
2022/12/28 07:34:30;;;;;;;4.30;1.27;;;;;;;6.64;64.61;99524.88;5137479;28;20054;-74
2022/12/28 07:37:21;;;;;;;3.88;0.93;;;;;;;6.58;63.77;99494.50;5139206;28;20051;-74
2022/12/28 07:40:11;;;;;;;4.05;0.90;;;;;;;6.83;64.92;99530.56;5137397;28;20062;-74
2022/12/28 07:43:01;;;;;;;2.95;1.00;;;;;;;6.91;63.93;99524.75;5139910;28;20054;-74
2022/12/28 07:46:05;;;;;;;2.15;0.95;;;;;;;7.34;62.27;99511.97;5140961;28;20173;-74
2022/12/28 07:48:56;;;;;;;3.75;1.30;;;;;;;7.06;63.41;99508.69;5143863;28;20553;-74
2022/12/28 07:51:47;;;;;;;5.03;1.38;;;;;;;7.23;62.09;99504.00;5134988;28;20135;-74
2022/12/28 07:54:38;;;;;;;1.35;0.95;;;;;;;7.36;62.38;99515.38;5138154;28;20157;-71
2022/12/28 07:57:28;;;;;;;4.15;1.30;;;;;;;7.38;62.24;99512.59;5139544;28;20079;-72
2022/12/28 08:00:18;;;;;;;5.68;1.25;;;;;;;7.77;61.34;99519.41;5135439;28;20062;-72
2022/12/28 08:03:08;;;;;;;5.15;1.25;;;;;;;7.63;61.64;99515.16;5138710;28;20148;-71
2022/12/28 08:06:07;;;;;;;6.82;1.27;;;;;;;7.56;61.27;99500.72;5138334;28;20047;-70
2022/12/28 08:08:59;;;;;;;2.22;1.50;;;;;;;7.39;62.03;99509.88;5137497;28;20513;-72
2022/12/28 08:11:49;;;;;;;5.75;1.38;;;;;;;7.54;61.63;99497.34;5136516;28;20051;-74
2022/12/28 08:14:39;;;;;;;4.22;1.55;;;;;;;7.68;61.88;99509.53;5139573;28;20137;-72
2022/12/28 08:17:29;;;;;;;2.80;1.40;;;;;;;7.87;60.58;99495.81;5137340;28;20544;-72
2022/12/28 08:20:21;;;;;;;9.25;1.80;;;;;;;7.35;62.71;99492.59;5136584;28;20065;-71
2022/12/28 08:23:11;;;;;;;4.13;1.83;;;;;;;7.39;63.00;99503.75;5138610;28;20538;-68
2022/12/28 08:26:13;;;;;;;3.47;1.73;;;;;;;7.51;62.32;99489.66;5141266;28;20058;-69
2022/12/28 08:29:07;;;;;;;4.85;1.92;;;;;;;7.14;62.91;99486.19;5135225;28;20047;-72
2022/12/28 08:31:57;;;;;;;3.55;1.98;;;;;;;7.21;63.66;99490.06;5130318;28;20054;-71
2022/12/28 08:34:47;;;;;;;4.43;2.17;;;;;;;7.33;63.51;99478.66;5133767;28;20113;-71
2022/12/28 08:37:37;;;;;;;7.03;2.17;;;;;;;6.97;63.51;99456.59;5136054;28;20103;-70
2022/12/28 08:40:28;;;;;;;7.85;2.65;;;;;;;7.10;63.32;99488.22;5141006;28;20514;-70
2022/12/28 08:43:19;;;;;;;4.38;2.20;;;;;;;7.47;62.83;99480.28;5137741;28;20062;-68
2022/12/28 08:46:18;;;;;;;8.18;2.60;;;;;;;7.82;61.49;99490.06;5139915;28;20197;-72
2022/12/28 08:49:09;;;;;;;3.38;2.10;;;;;;;7.74;61.42;99470.31;5134852;28;20098;-69
2022/12/28 08:51:59;;;;;;;4.25;2.22;;;;;;;7.31;62.51;99451.53;5141372;28;20069;-71
2022/12/28 08:54:49;;;;;;;2.90;2.10;;;;;;;7.53;62.90;99477.19;5142188;28;20472;-70
2022/12/28 08:57:39;;;;;;;6.63;2.42;;;;;;;7.60;62.45;99483.69;5137712;28;20054;-70
2022/12/28 09:00:29;;;;;;;7.75;2.13;;;;;;;7.89;61.91;99483.34;5141155;28;20470;-73
2022/12/28 09:03:20;;;;;;;3.97;2.28;;;;;;;8.24;61.25;99478.03;5142413;28;20158;-72
2022/12/28 09:06:14;;;;;;;5.47;2.17;;;;;;;8.01;60.47;99479.75;5138528;28;20419;-71
2022/12/28 09:09:06;;;;;;;4.07;2.40;;;;;;;7.95;61.43;99473.16;5142851;28;20086;-73
2022/12/28 09:11:56;;;;;;;5.10;2.47;;;;;;;7.85;61.74;99472.19;5140912;28;20205;-72
2022/12/28 09:14:46;;;;;;;4.32;1.98;;;;;;;7.74;62.25;99480.88;5139230;28;20054;-72
2022/12/28 09:17:36;;;;;;;7.00;2.03;;;;;;;7.62;63.13;99478.31;5141758;28;20105;-72
2022/12/28 09:20:26;;;;;;;4.43;2.10;;;;;;;7.39;62.75;99482.66;5142044;28;20157;-71
2022/12/28 09:23:16;;;;;;;6.82;2.55;;;;;;;7.59;62.76;99473.28;5139622;28;20077;-71
2022/12/28 09:26:08;;;;;;;4.10;2.30;;;;;;;7.50;62.72;99478.25;5134930;28;20062;-71
2022/12/28 09:29:01;;;;;;;6.95;2.55;;;;;;;7.71;62.62;99477.63;5140697;28;20050;-70
2022/12/28 09:31:51;;;;;;;4.80;1.98;;;;;;;8.01;61.96;99466.56;5135650;28;20049;-70
2022/12/28 09:34:41;;;;;;;3.55;2.03;;;;;;;8.18;61.13;99478.50;5137198;28;20069;-70
2022/12/28 09:37:31;;;;;;;4.35;2.10;;;;;;;7.97;62.15;99480.97;5139401;28;20054;-71
2022/12/28 09:40:22;;;;;;;7.05;2.40;;;;;;;8.33;61.43;99473.84;5138456;28;20050;-71
2022/12/28 09:43:13;;;;;;;6.07;3.03;;;;;;;8.34;60.68;99472.88;5132713;28;20059;-72
2022/12/28 09:46:03;;;;;;;7.32;3.15;;;;;;;8.36;61.22;99474.44;5141690;28;20185;-71
2022/12/28 09:48:57;;;;;;;7.97;2.65;;;;;;;8.39;60.27;99458.41;5138829;28;20054;-70
2022/12/28 09:52:14;;;;;;;6.65;2.75;;;;;;;8.77;59.69;99474.88;5138562;28;20405;-70
2022/12/28 09:55:13;;;;;;;7.30;2.67;;;;;;;8.94;59.87;99469.09;5136911;28;20055;-72
2022/12/28 09:58:10;;;;;;;9.40;2.83;;;;;;;8.58;60.18;99446.41;5138746;28;20531;-71
2022/12/28 10:01:02;;;;;;;5.63;2.45;;;;;;;8.89;59.43;99461.53;5137282;28;20074;-71
2022/12/28 10:03:54;;;;;;;7.93;2.50;;;;;;;8.85;59.88;99460.09;5133805;28;20050;-71
2022/12/28 10:06:44;;;;;;;7.35;2.35;;;;;;;8.73;59.88;99423.19;5128267;28;20504;-71
2022/12/28 10:09:34;;;;;;;6.10;2.42;;;;;;;8.87;60.01;99437.03;5136930;28;20047;-70
2022/12/28 10:12:25;;;;;;;7.82;2.53;;;;;;;9.08;59.47;99449.47;5133910;28;20055;-69
2022/12/28 10:15:16;;;;;;;5.75;2.58;;;;;;;10.06;57.30;99441.38;5133615;28;20411;-67
2022/12/28 10:18:06;;;;;;;4.72;2.20;;;;;;;9.51;58.30;99438.06;5140509;28;20079;-68
2022/12/28 10:20:58;;;;;;;2.55;1.95;;;;;;;9.54;57.89;99425.41;5138978;28;20078;-69
2022/12/28 10:23:52;;;;;;;4.30;2.17;;;;;;;10.01;57.80;99435.66;5140842;28;20109;-69
2022/12/28 10:27:05;;;;;;;4.05;1.67;;;;;;;9.97;57.21;99428.94;5140746;28;20109;-69
2022/12/28 10:30:00;;;;;;;3.97;1.70;;;;;;;10.06;57.19;99414.91;5140438;28;20046;-68
2022/12/28 10:32:53;;;;;;;4.55;2.03;;;;;;;10.01;57.57;99411.81;5138077;28;20053;-69
2022/12/28 10:35:54;;;;;;;9.57;2.08;;;;;;;10.11;57.44;99399.47;5137291;28;20062;-70
2022/12/28 10:38:54;;;;;;;3.20;2.05;;;;;;;9.86;57.19;99401.53;5137118;28;20246;-69
2022/12/28 10:41:45;;;;;;;6.03;2.10;;;;;;;10.05;57.87;99399.97;5138633;28;20129;-69
2022/12/28 10:44:37;;;;;;;3.63;2.08;;;;;;;10.14;56.89;99391.25;5139888;28;20129;-68
2022/12/28 10:47:34;;;;;;;4.93;3.03;;;;;;;10.11;56.50;99402.09;5140040;28;20057;-68
2022/12/28 10:50:46;;;;;;;4.40;1.83;;;;;;;9.77;57.79;99393.53;5139065;28;20054;-69
2022/12/28 10:53:53;;;;;;;2.97;2.03;;;;;;;9.61;58.88;99393.97;5137097;28;20050;-69
2022/12/28 10:56:48;;;;;;;2.65;2.08;;;;;;;9.78;59.54;99382.81;5137362;28;20497;-69
2022/12/28 10:59:39;;;;;;;5.38;2.50;;;;;;;10.16;57.50;99372.56;5134633;28;20070;-68
2022/12/28 11:02:31;;;;;;;3.90;2.25;;;;;;;9.87;58.15;99384.69;5138052;28;20073;-69
2022/12/28 11:05:24;;;;;;;5.80;2.30;;;;;;;10.70;56.22;99358.16;5137652;28;20051;-69
2022/12/28 11:08:14;;;;;;;4.13;2.10;;;;;;;10.89;54.71;99367.97;5138938;28;20059;-68
2022/12/28 11:11:05;;;;;;;5.13;2.47;;;;;;;10.36;56.61;99366.41;5140175;28;20068;-69
2022/12/28 11:14:02;;;;;;;10.18;3.13;;;;;;;10.21;56.99;99355.28;5135297;28;20062;-69
2022/12/28 11:16:52;;;;;;;5.28;2.33;;;;;;;10.28;57.11;99361.78;5128955;28;20529;-69
2022/12/28 11:19:42;;;;;;;7.97;2.55;;;;;;;10.55;56.80;99352.38;5135549;28;20053;-69
2022/12/28 11:22:33;;;;;;;3.60;2.15;;;;;;;10.40;57.21;99348.41;5137615;28;20189;-68
2022/12/28 11:25:33;;;;;;;4.80;2.20;;;;;;;11.05;56.18;99341.72;5140181;28;20062;-67
2022/12/28 11:28:23;;;;;;;13.05;2.25;;;;;;;11.00;54.83;99336.84;5141389;28;20065;-67
2022/12/28 11:31:22;;;;;;;7.25;1.80;;;;;;;10.86;56.73;99323.13;5136714;28;20105;-67
2022/12/28 11:34:19;;;;;;;5.95;2.10;;;;;;;10.91;55.91;99310.31;5139440;28;20089;-68
2022/12/28 11:37:12;;;;;;;1.55;0.75;;;;;;;11.60;53.32;99315.47;5136996;28;20625;-68
2022/12/28 11:40:03;;;;;;;0.77;0.60;;;;;;;11.61;53.31;99313.63;5135239;28;20057;-68
2022/12/28 11:42:54;;;;;;;1.55;0.88;;;;;;;11.73;52.62;99313.34;5140352;28;20051;-68
2022/12/28 11:45:53;;;;;;;2.22;0.52;;;;;;;11.84;52.87;99314.13;5138109;28;20507;-69
2022/12/28 11:48:48;;;;;;;1.35;0.70;;;;;;;11.35;52.84;99292.13;5138237;28;20681;-68
2022/12/28 11:51:38;;;;;;;1.48;0.75;;;;;;;11.66;52.69;99306.09;5133228;28;20440;-68
2022/12/28 11:54:36;;;;;;;2.50;1.10;;;;;;;11.93;52.33;99310.66;5132673;28;20055;-69
2022/12/28 11:57:38;;;;;;;4.40;0.73;;;;;;;11.92;52.96;99303.66;5130157;28;20110;-69
2022/12/28 12:00:46;;;;;;;1.83;0.70;;;;;;;12.21;50.57;99288.44;5128979;28;20054;-68
2022/12/28 12:03:55;;;;;;;1.90;0.75;;;;;;;12.33;51.87;99293.56;5133403;28;20051;-67
2022/12/28 12:06:47;;;;;;;1.88;0.60;;;;;;;12.43;51.84;99289.03;5140208;28;20181;-67
2022/12/28 12:09:37;;;;;;;3.95;0.77;;;;;;;12.34;52.15;99276.63;5139424;28;20070;-68
2022/12/28 12:12:27;;;;;;;2.30;0.70;;;;;;;12.32;51.13;99270.63;5137370;28;20094;-68
2022/12/28 12:15:40;;;;;;;4.53;0.82;;;;;;;12.45;52.26;99260.47;5143654;28;20095;-67
2022/12/28 12:18:42;;;;;;;3.85;0.88;;;;;;;12.58;51.40;99263.63;5137939;28;20054;-67
2022/12/28 12:21:40;;;;;;;1.42;0.60;;;;;;;12.35;50.62;99265.00;5142861;28;20062;-68
2022/12/28 12:24:57;;;;;;;1.60;0.90;;;;;;;12.22;51.06;99260.88;5143731;28;20046;-68
2022/12/28 12:27:52;;;;;;;2.55;0.70;;;;;;;12.42;51.13;99255.47;5169340;28;20118;-68
2022/12/28 12:30:44;;;;;;;3.03;1.00;;;;;;;11.99;51.43;99251.63;5142845;28;20050;-69
2022/12/28 12:33:39;;;;;;;3.58;0.90;;;;;;;11.84;52.40;99250.38;5142510;28;20143;-68
2022/12/28 12:36:33;;;;;;;2.83;0.73;;;;;;;11.50;52.33;99237.63;5142851;28;20055;-68
2022/12/28 12:39:56;;;;;;;4.47;0.98;;;;;;;11.90;51.87;99233.88;5140462;28;20816;-70
2022/12/28 12:43:09;;;;;;;2.85;0.82;;;;;;;12.03;52.83;99233.56;5141193;28;20054;-69
2022/12/28 12:46:05;;;;;;;5.70;0.80;;;;;;;11.87;51.92;99224.38;5139163;28;20053;-70
2022/12/28 12:49:23;;;;;;;3.22;0.80;;;;;;;11.88;51.88;99219.91;5142700;28;20110;-70
2022/12/28 12:52:41;;;;;;;1.65;0.80;;;;;;;11.91;52.06;99219.59;5142075;28;20168;-69
2022/12/28 12:55:37;;;;;;;1.27;0.73;;;;;;;11.66;52.39;99215.78;5153055;28;20077;-71
2022/12/28 12:58:51;;;;;;;2.42;0.82;;;;;;;11.93;51.66;99217.66;5139514;28;20061;-73
2022/12/28 13:01:52;;;;;;;2.30;0.77;;;;;;;12.18;51.22;99211.63;5143226;28;20568;-73
2022/12/28 13:04:46;;;;;;;1.65;0.85;;;;;;;12.11;51.95;99199.09;5143857;28;20166;-70
2022/12/28 13:07:38;;;;;;;2.45;0.90;;;;;;;11.88;51.53;99198.66;5141690;28;20426;-72
2022/12/28 13:10:43;;;;;;;2.58;0.77;;;;;;;11.75;52.40;99183.00;5141049;28;20719;-70
2022/12/28 13:13:35;;;;;;;;;;;;;;;12.03;51.65;99191.88;5153181;28;20129;-71
2022/12/28 13:16:29;;;;;;;1.50;0.70;;;;;;;12.19;51.57;99180.59;5136901;28;20402;-70
2022/12/28 13:19:23;;;;;;;3.10;0.82;;;;;;;12.11;52.12;99185.81;5138768;28;20185;-68
2022/12/28 13:22:31;;;;;;;2.38;1.20;;;;;;;11.97;51.93;99187.13;5136753;28;20058;-68
2022/12/28 13:25:29;;;;;;;2.45;0.90;;;;;;;11.92;51.06;99170.78;5153167;28;20051;-69
2022/12/28 13:28:26;;;;;;;1.55;0.77;;;;;;;11.94;51.68;99177.63;5138639;28;20632;-68
2022/12/28 13:31:31;;;;;;;3.47;1.10;;;;;;;12.04;52.05;99168.78;5141213;28;20077;-69
2022/12/28 13:34:27;;;;;;;2.97;1.17;;;;;;;11.87;52.05;99171.25;5141983;28;20213;-68
2022/12/28 13:37:18;;;;;;;6.63;0.98;;;;;;;11.91;52.71;99146.03;5141784;28;20065;-69
2022/12/28 13:40:15;;;;;;;1.05;0.80;;;;;;;11.93;52.08;99154.72;5140141;28;20109;-68
2022/12/28 13:43:08;;;;;;;1.25;0.70;;;;;;;11.85;52.41;99161.75;5154520;28;20425;-69
2022/12/28 13:46:06;;;;;;;3.25;1.05;;;;;;;11.72;52.77;99157.59;5139908;28;20050;-70
2022/12/28 13:48:58;;;;;;;4.30;1.00;;;;;;;11.82;52.06;99152.25;5139241;28;20062;-69
2022/12/28 13:51:49;;;;;;;5.45;1.50;;;;;;;11.83;51.66;99161.88;5141950;28;20062;-69
2022/12/28 13:54:51;;;;;;;2.47;1.05;;;;;;;11.37;52.92;99155.63;5141271;28;20078;-69
2022/12/28 13:57:44;;;;;;;3.42;1.40;;;;;;;10.98;54.01;99157.53;5139070;28;20053;-69
2022/12/28 14:00:44;;;;;;;2.00;1.00;;;;;;;11.50;54.03;99152.66;5141644;28;20177;-69
2022/12/28 14:03:40;;;;;;;3.38;1.55;;;;;;;10.72;54.14;99083.88;5139494;28;20058;-70
2022/12/28 14:06:35;;;;;;;2.85;1.23;;;;;;;10.94;54.54;99119.84;5139266;28;20201;-69
2022/12/28 14:09:26;;;;;;;3.10;1.23;;;;;;;11.07;54.40;99145.25;5135498;28;20209;-70
2022/12/28 14:12:17;;;;;;;3.95;2.08;;;;;;;11.00;54.10;99150.28;5136339;28;20059;-70
2022/12/28 14:15:10;;;;;;;10.70;2.13;;;;;;;10.54;55.09;99130.66;5139293;28;20054;-70
2022/12/28 14:18:02;;;;;;;6.25;2.80;;;;;;;10.90;55.34;99133.56;5138362;28;20081;-74